TimePST,TemperatureF,Dew PointF,Humidity,Sea Level PressureIn,VisibilityMPH,Wind Direction,Wind SpeedMPH,Gust SpeedMPH,PrecipitationIn,Events,Conditions,WindDirDegrees,DateUTC
12:35 AM,48.2,46.4,93,30.28,3.0,SSW,12.7,17.3,0.01,,Overcast,210,2013-01-04 08:35:00
1:15 AM,48.2,46.4,93,30.29,2.0,SSW,10.4,-,N/A,,Drizzle,200,2013-01-04 09:15:00
3:55 AM,46.4,46.4,100,30.32,2.0,SW,4.6,-,0.01,,Heavy Drizzle,230,2013-01-04 11:55:00
4:15 AM,46.4,46.4,100,30.31,3.0,SW,3.5,-,N/A,,Overcast,220,2013-01-04 12:15:00
4:35 AM,46.4,46.4,100,30.31,3.0,Calm,Calm,-,N/A,Rain,Light Rain,0,2013-01-04 12:35:00
5:15 AM,46.4,44.6,93,30.32,2.0,SSW,5.8,-,N/A,,Heavy Drizzle,200,2013-01-04 13:15:00
5:35 AM,46.4,44.6,93,30.32,5.0,Calm,Calm,-,0.01,,Overcast,0,2013-01-04 13:35:00
5:55 AM,46.4,44.6,93,30.32,5.0,South,3.5,-,0.01,,Overcast,170,2013-01-04 13:55:00
6:15 AM,44.6,44.6,100,30.32,7.0,Calm,Calm,-,N/A,,Overcast,0,2013-01-04 14:15:00
6:35 AM,44.6,44.6,100,30.32,5.0,Calm,Calm,-,N/A,,Light Drizzle,0,2013-01-04 14:35:00
6:55 AM,44.6,44.6,100,30.32,10.0,SSE,4.6,-,N/A,,Overcast,160,2013-01-04 14:55:00
7:15 AM,44.6,44.6,100,30.32,5.0,SE,4.6,-,N/A,,Light Drizzle,130,2013-01-04 15:15:00
7:35 AM,44.6,44.6,100,30.32,10.0,SE,3.5,-,N/A,,Overcast,140,2013-01-04 15:35:00
7:55 AM,44.6,44.6,100,30.32,10.0,ESE,4.6,-,N/A,,Overcast,120,2013-01-04 15:55:00
8:15 AM,44.6,44.6,100,30.32,10.0,ESE,5.8,-,N/A,,Overcast,120,2013-01-04 16:15:00
8:35 AM,44.6,42.8,93,30.32,10.0,ESE,5.8,-,N/A,,Scattered Clouds,120,2013-01-04 16:35:00
8:55 AM,44.6,42.8,93,30.33,10.0,ESE,5.8,-,N/A,,Clear,110,2013-01-04 16:55:00
9:15 AM,44.6,44.6,100,30.34,10.0,ESE,3.5,-,N/A,,Clear,110,2013-01-04 17:15:00
9:35 AM,46.4,44.6,93,30.33,10.0,ESE,4.6,-,N/A,,Clear,110,2013-01-04 17:35:00
9:55 AM,46.4,44.6,93,30.33,10.0,East,5.8,-,N/A,,Clear,100,2013-01-04 17:55:00
10:15 AM,48.2,44.6,87,30.33,10.0,East,4.6,-,N/A,,Clear,90,2013-01-04 18:15:00
10:35 AM,50.0,44.6,82,30.32,10.0,East,4.6,-,N/A,,Clear,80,2013-01-04 18:35:00
10:55 AM,50.0,44.6,82,30.32,10.0,East,3.5,-,N/A,,Clear,90,2013-01-04 18:55:00
11:15 AM,50.0,44.6,82,30.31,10.0,ESE,4.6,-,N/A,,Clear,110,2013-01-04 19:15:00
11:35 AM,50.0,44.6,82,30.30,10.0,Calm,Calm,-,N/A,,Clear,0,2013-01-04 19:35:00
11:55 AM,51.8,44.6,76,30.29,7.0,SW,3.5,-,N/A,,Scattered Clouds,230,2013-01-04 19:55:00
12:15 PM,51.8,44.6,76,30.28,10.0,SW,3.5,-,N/A,,Scattered Clouds,220,2013-01-04 20:15:00
12:35 PM,51.8,44.6,76,30.27,5.0,WSW,5.8,-,N/A,,Haze,250,2013-01-04 20:35:00
12:55 PM,51.8,44.6,76,30.26,5.0,WSW,3.5,-,N/A,,Haze,240,2013-01-04 20:55:00
1:15 PM,51.8,44.6,76,30.24,10.0,West,3.5,-,N/A,,Clear,270,2013-01-04 21:15:00
1:35 PM,51.8,44.6,76,30.24,7.0,WSW,5.8,-,N/A,,Scattered Clouds,240,2013-01-04 21:35:00
1:55 PM,51.8,44.6,76,30.21,10.0,Calm,Calm,-,N/A,,Scattered Clouds,0,2013-01-04 21:55:00
2:15 PM,51.8,46.4,82,30.20,10.0,NE,5.8,-,N/A,,Clear,40,2013-01-04 22:15:00
2:35 PM,51.8,46.4,82,30.21,10.0,Calm,Calm,-,N/A,,Clear,0,2013-01-04 22:35:00
2:55 PM,51.8,46.4,82,30.19,10.0,NE,3.5,-,N/A,,Clear,50,2013-01-04 22:55:00
3:35 PM,48.2,44.6,87,30.20,4.0,WNW,3.5,-,N/A,,Clear,290,2013-01-04 23:35:00
3:55 PM,48.2,44.6,87,30.21,4.0,Calm,Calm,-,N/A,,Clear,0,2013-01-04 23:55:00
4:15 PM,48.2,44.6,87,30.21,4.0,Calm,Calm,-,N/A,,Clear,0,2013-01-05 00:15:00
4:35 PM,46.4,44.6,93,30.21,5.0,Calm,Calm,-,N/A,,Clear,0,2013-01-05 00:35:00
4:55 PM,44.6,42.8,93,30.20,4.0,South,3.5,-,N/A,,Clear,180,2013-01-05 00:55:00
5:15 PM,44.6,42.8,93,30.20,4.0,Calm,Calm,-,N/A,,Clear,0,2013-01-05 01:15:00
5:35 PM,42.8,41.0,93,30.20,4.0,Calm,Calm,-,N/A,,Mostly Cloudy,0,2013-01-05 01:35:00
6:15 PM,42.8,42.8,100,30.19,5.0,Calm,Calm,-,N/A,,Clear,0,2013-01-05 02:15:00
6:35 PM,41.0,41.0,100,30.19,5.0,ESE,3.5,-,N/A,,Clear,110,2013-01-05 02:35:00
6:55 PM,41.0,41.0,100,30.19,7.0,ESE,3.5,-,N/A,,Scattered Clouds,110,2013-01-05 02:55:00
7:15 PM,41.0,41.0,100,30.19,7.0,Calm,Calm,-,N/A,,Mostly Cloudy,0,2013-01-05 03:15:00
7:35 PM,41.0,41.0,100,-9999,7.0,ESE,4.6,-,N/A,,Overcast,110,2013-01-05 03:35:00
7:55 PM,42.8,42.8,100,30.18,7.0,East,5.8,-,N/A,,Overcast,90,2013-01-05 03:55:00
8:15 PM,42.8,42.8,100,30.18,10.0,East,3.5,-,N/A,,Scattered Clouds,80,2013-01-05 04:15:00
8:35 PM,42.8,42.8,100,30.17,10.0,Calm,Calm,-,N/A,,Mostly Cloudy,0,2013-01-05 04:35:00
8:55 PM,44.6,42.8,93,30.17,10.0,East,5.8,-,N/A,,Overcast,100,2013-01-05 04:55:00
9:15 PM,42.8,42.8,100,30.17,10.0,ESE,3.5,-,N/A,,Overcast,110,2013-01-05 05:15:00
9:35 PM,42.8,42.8,100,30.17,10.0,ESE,3.5,-,N/A,,Overcast,110,2013-01-05 05:35:00
9:55 PM,42.8,42.8,100,30.17,10.0,East,4.6,-,N/A,,Overcast,80,2013-01-05 05:55:00
10:15 PM,42.8,42.8,100,30.18,10.0,East,3.5,-,N/A,,Overcast,80,2013-01-05 06:15:00
10:35 PM,42.8,42.8,100,30.17,10.0,East,5.8,-,N/A,,Overcast,90,2013-01-05 06:35:00
10:55 PM,42.8,42.8,100,30.17,10.0,East,4.6,-,N/A,,Mostly Cloudy,100,2013-01-05 06:55:00
11:15 PM,42.8,41.0,93,30.17,10.0,East,3.5,-,N/A,,Overcast,80,2013-01-05 07:15:00
11:35 PM,42.8,41.0,93,30.17,10.0,East,4.6,-,N/A,,Mostly Cloudy,90,2013-01-05 07:35:00
11:55 PM,42.8,41.0,93,30.16,10.0,East,4.6,-,N/A,,Overcast,80,2013-01-05 07:55:00